createdAt,value
2023-02-27T00:01:01.650Z,91.90
2023-02-27T00:03:30.532Z,91.80
2023-02-27T00:05:58.963Z,91.80
2023-02-27T00:08:27.873Z,91.70
2023-02-27T00:10:56.120Z,91.80
2023-02-27T00:13:25.910Z,92.00
2023-02-27T00:15:56.406Z,91.80
2023-02-27T00:18:25.020Z,91.40
2023-02-27T00:20:53.451Z,91.40
2023-02-27T00:23:21.939Z,91.50
2023-02-27T00:25:51.170Z,91.20
2023-02-27T00:28:19.555Z,91.40
2023-02-27T00:30:49.291Z,91.20
2023-02-27T00:33:17.709Z,91.20
2023-02-27T00:35:46.019Z,91.40
2023-02-27T00:38:14.436Z,91.40
2023-02-27T00:40:42.614Z,91.50
2023-02-27T00:43:10.848Z,91.60
2023-02-27T00:45:39.128Z,91.40
2023-02-27T00:48:08.759Z,91.40
2023-02-27T00:50:37.058Z,91.60
2023-02-27T00:53:05.266Z,91.50
2023-02-27T00:55:33.568Z,91.10
2023-02-27T00:58:01.801Z,91.00
2023-02-27T01:00:30.470Z,90.70
2023-02-27T01:02:58.920Z,90.50
2023-02-27T01:05:29.145Z,90.30
2023-02-27T01:07:59.751Z,90.40
2023-02-27T01:10:28.287Z,90.50
2023-02-27T01:12:56.692Z,90.50
2023-02-27T01:15:24.989Z,90.80
2023-02-27T01:17:53.318Z,91.00
2023-02-27T01:20:22.505Z,91.10
2023-02-27T01:22:52.317Z,90.70
2023-02-27T01:25:20.732Z,90.70
2023-02-27T01:27:48.934Z,90.50
2023-02-27T01:30:18.445Z,90.50
2023-02-27T01:32:46.782Z,90.40
2023-02-27T01:35:15.071Z,90.50
2023-02-27T01:37:43.286Z,90.40
2023-02-27T01:40:15.388Z,90.00
2023-02-27T01:42:43.860Z,90.00
2023-02-27T01:45:27.957Z,89.90
2023-02-27T01:48:03.843Z,90.00
2023-02-27T01:50:36.623Z,90.30
2023-02-27T01:53:07.855Z,90.30
2023-02-27T01:55:40.465Z,90.00
2023-02-27T01:58:12.102Z,90.30
2023-02-27T02:00:40.757Z,90.30
2023-02-27T02:03:18.620Z,89.60
2023-02-27T02:05:48.118Z,90.00
2023-02-27T02:08:20.308Z,90.00
2023-02-27T02:10:52.224Z,89.90
2023-02-27T02:13:23.431Z,89.60
2023-02-27T02:16:01.767Z,90.30
2023-02-27T02:18:39.852Z,90.10
2023-02-27T02:21:56.834Z,90.20
2023-02-27T02:24:56.484Z,90.70
2023-02-27T02:27:41.535Z,90.70
2023-02-27T02:31:04.617Z,90.70
2023-02-27T02:34:06.612Z,90.70
2023-02-27T02:37:12.364Z,90.90
2023-02-27T02:40:13.145Z,90.70
2023-02-27T02:42:50.930Z,90.50
2023-02-27T02:45:30.576Z,90.50
2023-02-27T02:48:09.689Z,90.70
2023-02-27T02:50:42.628Z,91.00
2023-02-27T02:53:17.433Z,90.60
2023-02-27T02:55:51.834Z,90.50
2023-02-27T02:58:28.432Z,90.80
2023-02-27T03:01:03.299Z,91.30
2023-02-27T03:03:34.549Z,91.60
2023-02-27T03:06:07.968Z,91.70
2023-02-27T03:08:40.384Z,92.00
2023-02-27T03:11:10.682Z,92.20
2023-02-27T03:13:44.820Z,92.50
2023-02-27T03:16:17.430Z,92.60
2023-02-27T03:18:55.550Z,92.70
2023-02-27T03:21:31.147Z,92.50
2023-02-27T03:24:03.677Z,92.30
2023-02-27T03:26:37.655Z,92.20
2023-02-27T03:29:10.187Z,92.20
2023-02-27T03:31:43.682Z,91.80
2023-02-27T03:34:18.171Z,91.70
2023-02-27T03:36:53.933Z,91.60
2023-02-27T03:39:28.763Z,91.20
2023-02-27T03:42:08.660Z,91.00
2023-02-27T03:45:12.248Z,90.80
2023-02-27T03:47:41.365Z,90.40
2023-02-27T03:50:11.480Z,90.40
2023-02-27T03:52:40.270Z,90.80
2023-02-27T03:55:14.080Z,90.90
2023-02-27T03:57:44.989Z,91.00
2023-02-27T04:00:17.426Z,91.20
2023-02-27T04:02:48.212Z,91.50
2023-02-27T04:05:19.713Z,91.70
2023-02-27T04:08:07.563Z,91.70
2023-02-27T04:10:58.850Z,91.90
2023-02-27T04:13:48.572Z,92.20
2023-02-27T04:16:52.122Z,92.00
2023-02-27T04:19:37.591Z,92.00
2023-02-27T04:22:19.323Z,92.00
2023-02-27T04:24:56.201Z,92.20
2023-02-27T04:27:32.752Z,92.30
2023-02-27T04:30:14.843Z,92.30
2023-02-27T04:32:50.826Z,92.60
2023-02-27T04:35:23.498Z,92.60
2023-02-27T04:37:57.064Z,93.00
2023-02-27T04:40:30.087Z,93.20
2023-02-27T04:43:01.926Z,93.40
2023-02-27T04:45:35.574Z,93.40
2023-02-27T04:48:08.342Z,93.60
2023-02-27T04:50:41.242Z,93.40
2023-02-27T04:53:15.763Z,93.20
2023-02-27T04:55:48.345Z,93.30
2023-02-27T04:58:25.230Z,93.40
2023-02-27T05:01:00.786Z,93.50
2023-02-27T05:03:34.913Z,93.70
2023-02-27T05:06:04.400Z,93.70
2023-02-27T05:08:39.622Z,93.60
2023-02-27T05:11:13.041Z,93.20
2023-02-27T05:13:45.143Z,92.50
2023-02-27T05:16:22.218Z,91.80
2023-02-27T05:18:51.450Z,91.50
2023-02-27T05:21:27.485Z,91.60
2023-02-27T05:24:05.328Z,91.50
2023-02-27T05:26:47.522Z,91.40
2023-02-27T05:29:23.518Z,91.20
2023-02-27T05:31:55.973Z,90.70
2023-02-27T05:34:27.450Z,90.40
2023-02-27T05:37:02.762Z,90.10
2023-02-27T05:39:36.205Z,90.10
2023-02-27T05:42:07.669Z,89.90
2023-02-27T05:44:38.495Z,88.60
2023-02-27T05:47:13.009Z,88.90
2023-02-27T05:49:45.117Z,87.50
2023-02-27T05:52:17.608Z,86.50
2023-02-27T05:54:51.439Z,85.90
2023-02-27T05:57:24.229Z,85.60
2023-02-27T05:59:59.743Z,86.00
2023-02-27T06:02:29.740Z,85.10
2023-02-27T06:04:58.356Z,84.40
2023-02-27T06:07:26.477Z,84.10
2023-02-27T06:09:54.787Z,84.70
2023-02-27T06:12:23.002Z,84.90
2023-02-27T06:14:51.912Z,84.80
2023-02-27T06:17:20.235Z,83.90
2023-02-27T06:19:50.037Z,83.60
2023-02-27T06:22:18.248Z,84.50
2023-02-27T06:24:46.515Z,84.20
2023-02-27T06:27:14.707Z,84.00
2023-02-27T06:29:43.000Z,83.90
2023-02-27T06:32:11.331Z,83.10
2023-02-27T06:34:39.798Z,82.10
2023-02-27T06:37:09.408Z,81.20
2023-02-27T06:39:37.761Z,82.10
2023-02-27T06:42:06.336Z,81.60
2023-02-27T06:44:35.003Z,81.60
2023-02-27T06:47:03.247Z,79.70
2023-02-27T06:49:31.871Z,79.80
2023-02-27T15:10:03.808Z,54.40
2023-02-27T15:12:33.377Z,55.50
2023-02-27T15:15:03.844Z,55.20
2023-02-27T15:17:39.675Z,53.80
2023-02-27T15:20:25.234Z,53.30
2023-02-27T15:22:53.415Z,54.30
2023-02-27T15:25:32.272Z,54.40
2023-02-27T15:28:03.784Z,54.90
2023-02-27T15:30:32.905Z,56.40
2023-02-27T15:33:02.855Z,54.60
2023-02-27T15:35:37.667Z,55.60
2023-02-27T15:38:07.442Z,55.00
2023-02-27T15:40:37.451Z,56.00
2023-02-27T15:43:05.940Z,55.70
2023-02-27T15:45:36.615Z,55.70
2023-02-27T15:48:06.317Z,56.00
2023-02-27T15:50:38.408Z,55.30
2023-02-27T15:53:13.683Z,55.30
2023-02-27T15:55:45.991Z,55.10
2023-02-27T15:58:21.992Z,55.60
2023-02-27T16:00:52.865Z,55.90
2023-02-27T16:03:24.574Z,56.50
2023-02-27T16:05:54.066Z,56.40
2023-02-27T16:08:22.584Z,57.50
2023-02-27T16:10:53.031Z,57.50
2023-02-27T16:13:22.906Z,57.80
2023-02-27T16:16:01.806Z,58.20
2023-02-27T16:18:34.975Z,57.20
2023-02-27T16:21:11.586Z,57.30
2023-02-27T16:23:39.798Z,57.40
2023-02-27T16:26:37.631Z,57.40
2023-02-27T16:29:15.276Z,57.50
2023-02-27T16:31:49.931Z,57.90
2023-02-27T16:34:28.029Z,57.50
2023-02-27T16:37:03.395Z,57.60
2023-02-27T16:39:32.117Z,57.50
2023-02-27T16:42:02.903Z,58.00
2023-02-27T16:44:31.500Z,58.70
2023-02-27T16:46:59.691Z,58.50
2023-02-27T16:49:31.219Z,59.20
2023-02-27T16:52:01.231Z,59.60
2023-02-27T16:54:29.696Z,60.00
2023-02-27T16:56:57.987Z,59.90
2023-02-27T16:59:33.469Z,59.60
2023-02-27T17:02:03.733Z,60.00
2023-02-27T17:04:32.238Z,60.50
2023-02-27T17:07:02.987Z,60.20
2023-02-27T17:09:31.836Z,60.60
2023-02-27T17:11:59.826Z,61.00
2023-02-27T17:14:27.870Z,60.90
2023-02-27T17:16:59.397Z,60.50
2023-02-27T17:19:27.536Z,60.90
2023-02-27T17:21:55.640Z,61.60
2023-02-27T17:24:23.887Z,61.50
2023-02-27T17:26:52.597Z,61.50
2023-02-27T17:29:20.851Z,61.70
2023-02-27T17:31:49.337Z,61.60
2023-02-27T17:34:18.886Z,61.90
2023-02-27T17:36:46.974Z,61.90
2023-02-27T17:39:15.675Z,62.20
2023-02-27T17:41:44.677Z,62.40
2023-02-27T17:44:13.419Z,62.30
2023-02-27T17:46:42.506Z,62.80
2023-02-27T17:49:10.636Z,63.40
2023-02-27T17:51:40.035Z,63.20
2023-02-27T17:54:08.227Z,63.40
2023-02-27T17:56:37.136Z,62.80
2023-02-27T17:59:05.646Z,62.90
2023-02-27T18:01:34.764Z,63.20
2023-02-27T18:04:02.951Z,63.60
2023-02-27T18:06:31.995Z,63.50
2023-02-27T18:09:01.411Z,64.20
2023-02-27T18:11:29.508Z,64.50
2023-02-27T18:13:57.624Z,64.30
2023-02-27T18:16:25.848Z,64.50
2023-02-27T18:18:53.989Z,64.90
2023-02-27T18:21:24.305Z,65.50
2023-02-27T18:23:53.581Z,64.90
2023-02-27T18:26:32.374Z,65.10
2023-02-27T18:29:03.150Z,64.60
2023-02-27T18:31:33.728Z,64.80
2023-02-27T18:34:02.447Z,64.90
2023-02-27T18:36:31.612Z,65.50
2023-02-27T18:39:00.843Z,65.60
2023-02-27T18:41:30.544Z,65.60
2023-02-27T18:43:59.613Z,66.10
2023-02-27T18:46:28.306Z,66.50
2023-02-27T18:48:56.745Z,66.30
2023-02-27T18:51:25.159Z,66.70
2023-02-27T18:53:53.327Z,66.60
2023-02-27T18:56:23.658Z,66.60
2023-02-27T18:58:54.062Z,66.90
2023-02-27T19:01:24.983Z,66.70
2023-02-27T19:03:56.491Z,65.70
2023-02-27T19:06:24.683Z,66.30
2023-02-27T19:08:53.099Z,66.50
2023-02-27T19:11:25.689Z,65.90
2023-02-27T19:13:55.038Z,66.60
2023-02-27T19:16:23.223Z,67.00
2023-02-27T19:18:51.355Z,67.20
2023-02-27T19:21:20.161Z,67.50
2023-02-27T19:23:48.293Z,67.50
2023-02-27T19:26:16.306Z,67.40
2023-02-27T19:28:44.980Z,67.60
2023-02-27T19:31:15.326Z,67.50
2023-02-27T19:33:43.771Z,67.70
2023-02-27T19:36:13.766Z,67.20
2023-02-27T19:38:42.079Z,66.80
2023-02-27T19:41:12.549Z,66.50
2023-02-27T19:43:41.657Z,66.40
2023-02-27T19:46:11.675Z,66.40
2023-02-27T19:48:41.762Z,66.70
2023-02-27T19:51:12.196Z,66.70
2023-02-27T19:53:42.787Z,66.60
2023-02-27T19:56:14.762Z,66.90
2023-02-27T19:58:43.374Z,66.80
2023-02-27T20:01:12.384Z,67.30
2023-02-27T20:03:44.090Z,67.00
2023-02-27T20:06:17.566Z,67.00
2023-02-27T20:08:46.768Z,66.60
2023-02-27T20:11:17.189Z,66.80
2023-02-27T20:13:45.914Z,66.80
2023-02-27T20:16:16.224Z,67.20
2023-02-27T20:18:46.372Z,67.20
2023-02-27T20:21:16.719Z,67.60
2023-02-27T20:23:46.624Z,67.30
2023-02-27T20:26:18.128Z,67.50
2023-02-27T20:28:47.837Z,67.80
2023-02-27T20:31:18.924Z,67.90
2023-02-27T20:33:49.148Z,67.80
2023-02-27T20:36:18.059Z,67.50
2023-02-27T20:38:46.862Z,67.80
2023-02-27T20:41:16.882Z,67.80
2023-02-27T20:43:45.298Z,67.90
2023-02-27T20:46:16.226Z,68.00
2023-02-27T20:48:44.790Z,68.00
2023-02-27T20:51:16.620Z,69.20
2023-02-27T20:53:49.125Z,69.10
2023-02-27T20:56:20.612Z,69.80
2023-02-27T20:58:49.256Z,69.80
2023-02-27T21:01:18.716Z,70.00
2023-02-27T21:03:50.402Z,69.90
2023-02-27T21:06:20.899Z,69.40
2023-02-27T21:08:51.303Z,69.80
2023-02-27T21:11:21.516Z,69.60
2023-02-27T21:13:50.818Z,69.80
2023-02-27T21:16:20.351Z,69.80
2023-02-27T21:18:51.850Z,69.30
2023-02-27T21:21:24.151Z,69.50
2023-02-27T21:23:52.785Z,69.90
2023-02-27T21:26:23.775Z,70.30
2023-02-27T21:28:53.388Z,70.50
2023-02-27T21:31:23.684Z,70.10
2023-02-27T21:33:52.715Z,69.90
2023-02-27T21:36:27.921Z,70.30
2023-02-27T21:38:58.827Z,70.60
2023-02-27T21:41:28.095Z,70.80
2023-02-27T21:43:59.472Z,70.60
2023-02-27T21:46:28.275Z,70.40
2023-02-27T21:48:56.690Z,70.10
2023-02-27T21:51:39.324Z,70.60
2023-02-27T21:54:11.614Z,70.60
2023-02-27T21:56:40.919Z,70.30
2023-02-27T21:59:09.342Z,70.10
2023-02-27T22:01:38.724Z,70.30
2023-02-27T22:04:07.734Z,70.50
2023-02-27T22:06:37.374Z,70.50
2023-02-27T22:09:08.049Z,70.90
2023-02-27T22:11:36.771Z,71.30
2023-02-27T22:14:07.217Z,71.70
2023-02-27T22:16:35.994Z,71.90
2023-02-27T22:19:07.663Z,71.50
2023-02-27T22:21:39.140Z,71.60
2023-02-27T22:24:08.547Z,71.80
2023-02-27T22:26:37.040Z,71.70
2023-02-27T22:29:06.763Z,71.90
2023-02-27T22:31:37.529Z,72.10
2023-02-27T22:34:07.914Z,72.50
2023-02-27T22:36:38.083Z,72.40
2023-02-27T22:39:07.484Z,72.80
2023-02-27T22:41:38.512Z,72.80
2023-02-27T22:44:07.438Z,72.50
2023-02-27T22:46:38.286Z,73.10
2023-02-27T22:49:09.257Z,73.30
2023-02-27T22:51:39.157Z,73.50
2023-02-27T22:54:10.187Z,73.80
2023-02-27T22:56:38.685Z,74.20
2023-02-27T22:59:08.702Z,74.10
2023-02-27T23:01:38.350Z,74.30
2023-02-27T23:04:08.996Z,74.40
2023-02-27T23:06:40.248Z,74.50
2023-02-27T23:09:11.930Z,74.60
2023-02-27T23:11:40.246Z,74.70
2023-02-27T23:14:08.655Z,74.60
2023-02-27T23:16:37.379Z,74.60
2023-02-27T23:19:05.976Z,75.30
2023-02-27T23:21:36.113Z,74.90
2023-02-27T23:24:07.802Z,75.10
2023-02-27T23:26:37.709Z,75.10
2023-02-27T23:29:06.960Z,75.30
2023-02-27T23:31:36.315Z,75.30
2023-02-27T23:34:06.676Z,75.40
2023-02-27T23:36:35.651Z,75.20
2023-02-27T23:39:06.891Z,74.70
2023-02-27T23:41:38.074Z,74.90
2023-02-27T23:44:24.178Z,74.90
2023-02-27T23:46:52.821Z,75.20
2023-02-27T23:49:21.230Z,75.10
2023-02-27T23:51:49.441Z,75.10
2023-02-27T23:54:19.038Z,75.10
2023-02-27T23:56:48.664Z,75.30
2023-02-27T23:59:16.962Z,75.60
